TimeAST,TemperatureF,Dew PointF,Humidity,Sea Level PressureIn,VisibilityMPH,Wind Direction,Wind SpeedMPH,Gust SpeedMPH,PrecipitationIn,Events,Conditions,WindDirDegrees,DateUTC
12:00 AM,-32.8,-40.0,68,30.27,15.0,Calm,Calm,-,N/A,,Clear,0,2013-01-23 04:00:00
1:00 AM,-34.6,-43.6,61,30.27,15.0,Calm,Calm,-,N/A,,Clear,0,2013-01-23 05:00:00
2:00 AM,-36.4,-43.6,67,30.25,15.0,Calm,Calm,-,N/A,,Clear,0,2013-01-23 06:00:00
3:00 AM,-36.4,-45.4,61,30.26,15.0,Calm,Calm,-,N/A,,Clear,0,2013-01-23 07:00:00
4:00 AM,-38.2,-47.2,61,30.25,15.0,Calm,Calm,-,N/A,,Clear,0,2013-01-23 08:00:00
5:00 AM,-40.0,-49.0,60,30.26,15.0,Calm,Calm,-,N/A,,Clear,0,2013-01-23 09:00:00
6:00 AM,-40.0,-49.0,60,30.26,15.0,Calm,Calm,-,N/A,,Clear,0,2013-01-23 10:00:00
6:22 AM,-41.8,-49.0,67,30.26,6.0,Calm,Calm,-,N/A,,Ice Crystals,0,2013-01-23 10:22:00
7:00 AM,-40.0,-49.0,60,30.27,6.0,Calm,Calm,-,N/A,,Ice Crystals,0,2013-01-23 11:00:00
8:00 AM,-43.6,-50.8,67,30.27,3.0,Variable,2.3,-,N/A,,Clear,0,2013-01-23 12:00:00
8:14 AM,-43.6,-50.8,67,30.27,1.0,ENE,3.5,-,N/A,,Clear,70,2013-01-23 12:14:00
8:20 AM,-43.6,-50.8,67,30.27,0.8,Calm,Calm,-,N/A,,Clear,0,2013-01-23 12:20:00
8:48 AM,-45.4,-54.4,60,30.27,15.0,SW,2.3,-,N/A,Fog,Shallow Fog,220,2013-01-23 12:48:00
9:00 AM,-45.4,-52.6,66,30.28,15.0,SSW,2.3,-,N/A,Fog,Shallow Fog,210,2013-01-23 13:00:00
10:00 AM,-40.0,-47.2,67,30.27,15.0,Calm,Calm,-,N/A,Fog,Shallow Fog,0,2013-01-23 14:00:00
10:39 AM,-32.8,-41.8,62,30.28,0.8,Calm,Calm,-,N/A,,Clear,0,2013-01-23 14:39:00
10:54 AM,-32.8,-40.0,68,30.28,15.0,Calm,Calm,-,N/A,,Clear,0,2013-01-23 14:54:00
11:00 AM,-31.0,-40.0,62,30.27,8.0,Calm,Calm,-,N/A,,Clear,0,2013-01-23 15:00:00
12:00 PM,-23.8,-31.0,69,30.27,15.0,WSW,2.3,-,N/A,,Clear,240,2013-01-23 16:00:00
1:00 PM,-18.4,-27.4,63,30.25,15.0,WSW,3.5,-,N/A,,Partly Cloudy,250,2013-01-23 17:00:00
2:00 PM,-14.8,-25.6,58,30.23,15.0,WSW,5.8,-,N/A,,Scattered Clouds,250,2013-01-23 18:00:00
3:00 PM,-13.0,-25.6,53,30.21,15.0,WSW,3.5,-,N/A,,Partly Cloudy,240,2013-01-23 19:00:00
4:00 PM,-13.0,-25.6,53,30.22,15.0,West,4.6,-,N/A,,Partly Cloudy,260,2013-01-23 20:00:00
5:00 PM,-13.0,-23.8,59,30.23,15.0,Calm,Calm,-,N/A,,Scattered Clouds,0,2013-01-23 21:00:00
6:00 PM,-14.8,-23.8,64,30.24,15.0,NNE,2.3,-,N/A,,Scattered Clouds,20,2013-01-23 22:00:00
7:00 PM,-22.0,-29.2,69,30.26,15.0,Calm,Calm,-,N/A,,Partly Cloudy,0,2013-01-23 23:00:00
8:00 PM,-25.6,-32.8,69,30.27,15.0,Calm,Calm,-,N/A,,Partly Cloudy,0,2013-01-24 00:00:00
9:00 PM,-29.2,-36.4,68,30.30,15.0,Calm,Calm,-,N/A,,Clear,0,2013-01-24 01:00:00
10:00 PM,-31.0,-38.2,68,30.31,15.0,Calm,Calm,-,N/A,,Clear,0,2013-01-24 02:00:00
11:00 PM,-31.0,-38.2,68,30.30,15.0,Calm,Calm,-,N/A,,Clear,0,2013-01-24 03:00:00